sensor_id;sensor_type;location;lat;lon;timestamp;P1;durP1;ratioP1;P2;durP2;ratioP2
30681;SDS011;17439;48.092;11.842;2023-10-19T00:00:55;17.50;;;8.75;;
30681;SDS011;17439;48.092;11.842;2023-10-19T00:03:22;14.45;;;8.85;;
30681;SDS011;17439;48.092;11.842;2023-10-19T00:05:50;17.52;;;9.80;;
30681;SDS011;17439;48.092;11.842;2023-10-19T00:08:17;26.90;;;11.90;;
30681;SDS011;17439;48.092;11.842;2023-10-19T00:10:44;19.13;;;10.10;;
30681;SDS011;17439;48.092;11.842;2023-10-19T00:13:13;17.20;;;8.60;;
30681;SDS011;17439;48.092;11.842;2023-10-19T00:15:41;15.45;;;9.18;;
30681;SDS011;17439;48.092;11.842;2023-10-19T00:18:09;16.88;;;8.80;;
30681;SDS011;17439;48.092;11.842;2023-10-19T00:20:36;16.23;;;8.63;;
30681;SDS011;17439;48.092;11.842;2023-10-19T00:23:02;16.02;;;9.10;;
30681;SDS011;17439;48.092;11.842;2023-10-19T00:25:29;18.90;;;9.60;;
30681;SDS011;17439;48.092;11.842;2023-10-19T00:27:56;14.88;;;9.13;;
30681;SDS011;17439;48.092;11.842;2023-10-19T00:30:23;16.83;;;9.15;;
30681;SDS011;17439;48.092;11.842;2023-10-19T00:32:50;16.38;;;8.88;;
30681;SDS011;17439;48.092;11.842;2023-10-19T00:35:16;22.35;;;11.65;;
30681;SDS011;17439;48.092;11.842;2023-10-19T00:37:44;21.38;;;12.40;;
30681;SDS011;17439;48.092;11.842;2023-10-19T00:40:11;23.98;;;13.40;;
30681;SDS011;17439;48.092;11.842;2023-10-19T00:42:38;24.35;;;12.60;;
30681;SDS011;17439;48.092;11.842;2023-10-19T00:45:04;18.08;;;10.07;;
30681;SDS011;17439;48.092;11.842;2023-10-19T00:47:31;22.80;;;11.13;;
30681;SDS011;17439;48.092;11.842;2023-10-19T00:49:58;17.20;;;9.75;;
30681;SDS011;17439;48.092;11.842;2023-10-19T00:52:25;17.60;;;9.55;;
30681;SDS011;17439;48.092;11.842;2023-10-19T00:54:52;19.95;;;10.57;;
30681;SDS011;17439;48.092;11.842;2023-10-19T00:57:19;17.90;;;8.93;;
30681;SDS011;17439;48.092;11.842;2023-10-19T00:59:47;17.13;;;9.40;;
30681;SDS011;17439;48.092;11.842;2023-10-19T01:02:14;22.13;;;9.63;;
30681;SDS011;17439;48.092;11.842;2023-10-19T01:04:41;17.25;;;8.75;;
30681;SDS011;17439;48.092;11.842;2023-10-19T01:09:36;14.85;;;8.48;;
30681;SDS011;17439;48.092;11.842;2023-10-19T01:12:03;17.70;;;8.75;;
30681;SDS011;17439;48.092;11.842;2023-10-19T01:14:30;21.42;;;9.65;;
30681;SDS011;17439;48.092;11.842;2023-10-19T01:16:58;31.58;;;14.27;;
30681;SDS011;17439;48.092;11.842;2023-10-19T01:19:25;23.23;;;11.82;;
30681;SDS011;17439;48.092;11.842;2023-10-19T01:21:52;17.88;;;9.95;;
30681;SDS011;17439;48.092;11.842;2023-10-19T01:24:19;17.47;;;9.40;;
30681;SDS011;17439;48.092;11.842;2023-10-19T01:26:46;18.75;;;9.77;;
30681;SDS011;17439;48.092;11.842;2023-10-19T01:29:13;15.00;;;8.43;;
30681;SDS011;17439;48.092;11.842;2023-10-19T01:31:40;17.20;;;9.18;;
30681;SDS011;17439;48.092;11.842;2023-10-19T01:34:06;16.13;;;9.00;;
30681;SDS011;17439;48.092;11.842;2023-10-19T01:36:33;17.83;;;9.45;;
30681;SDS011;17439;48.092;11.842;2023-10-19T01:39:00;14.02;;;8.63;;
30681;SDS011;17439;48.092;11.842;2023-10-19T01:41:28;19.88;;;10.20;;
30681;SDS011;17439;48.092;11.842;2023-10-19T01:43:54;15.50;;;8.65;;
30681;SDS011;17439;48.092;11.842;2023-10-19T01:46:22;17.45;;;10.07;;
30681;SDS011;17439;48.092;11.842;2023-10-19T01:48:52;17.45;;;8.15;;
30681;SDS011;17439;48.092;11.842;2023-10-19T01:51:20;16.77;;;8.93;;
30681;SDS011;17439;48.092;11.842;2023-10-19T01:53:47;18.37;;;10.03;;
30681;SDS011;17439;48.092;11.842;2023-10-19T01:56:14;15.60;;;8.73;;
30681;SDS011;17439;48.092;11.842;2023-10-19T01:58:43;17.58;;;10.10;;
30681;SDS011;17439;48.092;11.842;2023-10-19T02:01:11;18.65;;;10.43;;
30681;SDS011;17439;48.092;11.842;2023-10-19T02:06:07;14.90;;;8.30;;
30681;SDS011;17439;48.092;11.842;2023-10-19T02:08:34;16.52;;;8.30;;
30681;SDS011;17439;48.092;11.842;2023-10-19T02:11:01;16.83;;;10.50;;
30681;SDS011;17439;48.092;11.842;2023-10-19T02:13:28;15.43;;;9.55;;
30681;SDS011;17439;48.092;11.842;2023-10-19T02:15:54;17.33;;;9.25;;
30681;SDS011;17439;48.092;11.842;2023-10-19T02:18:21;15.68;;;9.00;;
30681;SDS011;17439;48.092;11.842;2023-10-19T02:20:48;17.77;;;9.13;;
30681;SDS011;17439;48.092;11.842;2023-10-19T02:23:14;13.45;;;7.93;;
30681;SDS011;17439;48.092;11.842;2023-10-19T02:25:41;16.48;;;9.05;;
30681;SDS011;17439;48.092;11.842;2023-10-19T02:28:08;14.68;;;8.50;;
30681;SDS011;17439;48.092;11.842;2023-10-19T02:30:35;17.55;;;8.75;;
30681;SDS011;17439;48.092;11.842;2023-10-19T02:33:02;15.57;;;8.50;;
30681;SDS011;17439;48.092;11.842;2023-10-19T02:35:28;14.73;;;8.98;;
30681;SDS011;17439;48.092;11.842;2023-10-19T02:37:55;14.50;;;8.15;;
30681;SDS011;17439;48.092;11.842;2023-10-19T02:40:22;14.98;;;8.85;;
30681;SDS011;17439;48.092;11.842;2023-10-19T02:42:49;14.35;;;8.38;;
30681;SDS011;17439;48.092;11.842;2023-10-19T02:45:16;15.13;;;9.25;;
30681;SDS011;17439;48.092;11.842;2023-10-19T02:47:44;14.75;;;8.70;;
30681;SDS011;17439;48.092;11.842;2023-10-19T02:50:12;16.17;;;8.02;;
30681;SDS011;17439;48.092;11.842;2023-10-19T02:52:39;14.77;;;8.82;;
30681;SDS011;17439;48.092;11.842;2023-10-19T02:55:06;15.10;;;8.50;;
30681;SDS011;17439;48.092;11.842;2023-10-19T03:00:00;14.55;;;7.57;;
30681;SDS011;17439;48.092;11.842;2023-10-19T03:02:27;15.07;;;7.30;;
30681;SDS011;17439;48.092;11.842;2023-10-19T03:04:54;13.85;;;7.45;;
30681;SDS011;17439;48.092;11.842;2023-10-19T03:07:21;13.68;;;7.53;;
30681;SDS011;17439;48.092;11.842;2023-10-19T03:09:47;13.48;;;7.88;;
30681;SDS011;17439;48.092;11.842;2023-10-19T03:12:14;15.45;;;8.32;;
30681;SDS011;17439;48.092;11.842;2023-10-19T03:14:41;14.68;;;7.75;;
30681;SDS011;17439;48.092;11.842;2023-10-19T03:17:08;13.93;;;7.55;;
30681;SDS011;17439;48.092;11.842;2023-10-19T03:19:35;14.73;;;8.25;;
30681;SDS011;17439;48.092;11.842;2023-10-19T03:22:02;12.30;;;7.38;;
30681;SDS011;17439;48.092;11.842;2023-10-19T03:24:29;11.52;;;6.78;;
30681;SDS011;17439;48.092;11.842;2023-10-19T03:26:56;11.15;;;6.22;;
30681;SDS011;17439;48.092;11.842;2023-10-19T03:29:23;12.98;;;6.82;;
30681;SDS011;17439;48.092;11.842;2023-10-19T03:31:49;12.52;;;7.93;;
30681;SDS011;17439;48.092;11.842;2023-10-19T03:34:18;11.13;;;6.88;;
30681;SDS011;17439;48.092;11.842;2023-10-19T03:36:45;13.18;;;7.97;;
30681;SDS011;17439;48.092;11.842;2023-10-19T03:39:11;14.93;;;7.80;;
30681;SDS011;17439;48.092;11.842;2023-10-19T03:41:41;12.02;;;6.68;;
30681;SDS011;17439;48.092;11.842;2023-10-19T03:44:09;13.85;;;8.45;;
30681;SDS011;17439;48.092;11.842;2023-10-19T03:46:35;14.85;;;8.23;;
30681;SDS011;17439;48.092;11.842;2023-10-19T03:49:02;13.98;;;8.40;;
30681;SDS011;17439;48.092;11.842;2023-10-19T03:51:29;12.50;;;7.32;;
30681;SDS011;17439;48.092;11.842;2023-10-19T03:53:56;12.85;;;7.43;;
30681;SDS011;17439;48.092;11.842;2023-10-19T03:56:23;14.60;;;6.57;;
30681;SDS011;17439;48.092;11.842;2023-10-19T03:58:50;12.63;;;6.97;;
30681;SDS011;17439;48.092;11.842;2023-10-19T04:01:17;10.73;;;6.55;;
30681;SDS011;17439;48.092;11.842;2023-10-19T04:03:44;15.77;;;8.20;;
30681;SDS011;17439;48.092;11.842;2023-10-19T04:06:11;13.70;;;7.72;;
30681;SDS011;17439;48.092;11.842;2023-10-19T04:08:37;10.35;;;6.93;;
30681;SDS011;17439;48.092;11.842;2023-10-19T04:11:04;11.80;;;6.93;;
30681;SDS011;17439;48.092;11.842;2023-10-19T04:13:30;13.00;;;6.30;;
30681;SDS011;17439;48.092;11.842;2023-10-19T04:15:57;12.15;;;7.43;;
30681;SDS011;17439;48.092;11.842;2023-10-19T04:18:24;10.63;;;6.40;;
30681;SDS011;17439;48.092;11.842;2023-10-19T04:20:51;10.82;;;5.63;;
30681;SDS011;17439;48.092;11.842;2023-10-19T04:23:18;19.60;;;7.57;;
30681;SDS011;17439;48.092;11.842;2023-10-19T04:25:44;11.68;;;6.40;;
30681;SDS011;17439;48.092;11.842;2023-10-19T04:28:11;11.07;;;6.55;;
30681;SDS011;17439;48.092;11.842;2023-10-19T04:30:38;11.55;;;6.82;;
30681;SDS011;17439;48.092;11.842;2023-10-19T04:33:05;10.43;;;6.20;;
30681;SDS011;17439;48.092;11.842;2023-10-19T04:35:32;11.13;;;6.85;;
30681;SDS011;17439;48.092;11.842;2023-10-19T04:37:58;10.63;;;6.53;;
30681;SDS011;17439;48.092;11.842;2023-10-19T04:40:25;13.32;;;6.70;;
30681;SDS011;17439;48.092;11.842;2023-10-19T04:42:52;11.90;;;6.78;;
30681;SDS011;17439;48.092;11.842;2023-10-19T04:45:20;14.63;;;7.90;;
30681;SDS011;17439;48.092;11.842;2023-10-19T04:47:50;13.93;;;7.22;;
30681;SDS011;17439;48.092;11.842;2023-10-19T04:50:17;12.18;;;7.57;;
30681;SDS011;17439;48.092;11.842;2023-10-19T04:52:45;14.32;;;6.97;;
30681;SDS011;17439;48.092;11.842;2023-10-19T04:55:11;10.88;;;6.93;;
30681;SDS011;17439;48.092;11.842;2023-10-19T04:57:38;13.73;;;7.53;;
30681;SDS011;17439;48.092;11.842;2023-10-19T05:00:05;11.88;;;6.20;;
30681;SDS011;17439;48.092;11.842;2023-10-19T05:02:32;9.40;;;6.33;;
30681;SDS011;17439;48.092;11.842;2023-10-19T05:04:59;10.48;;;5.93;;
30681;SDS011;17439;48.092;11.842;2023-10-19T05:07:26;12.57;;;6.03;;
30681;SDS011;17439;48.092;11.842;2023-10-19T05:09:53;11.25;;;6.78;;
30681;SDS011;17439;48.092;11.842;2023-10-19T05:12:19;16.75;;;7.05;;
30681;SDS011;17439;48.092;11.842;2023-10-19T05:14:46;10.40;;;6.40;;
30681;SDS011;17439;48.092;11.842;2023-10-19T05:17:13;14.27;;;6.72;;
30681;SDS011;17439;48.092;11.842;2023-10-19T05:19:40;11.20;;;6.55;;
30681;SDS011;17439;48.092;11.842;2023-10-19T05:22:07;9.10;;;5.65;;
30681;SDS011;17439;48.092;11.842;2023-10-19T05:27:02;11.43;;;6.73;;
30681;SDS011;17439;48.092;11.842;2023-10-19T05:29:31;9.80;;;6.90;;
30681;SDS011;17439;48.092;11.842;2023-10-19T05:31:58;11.02;;;6.53;;
30681;SDS011;17439;48.092;11.842;2023-10-19T05:34:25;12.50;;;8.27;;
30681;SDS011;17439;48.092;11.842;2023-10-19T05:36:52;12.15;;;6.43;;
30681;SDS011;17439;48.092;11.842;2023-10-19T05:39:19;9.07;;;6.27;;
30681;SDS011;17439;48.092;11.842;2023-10-19T05:41:46;8.50;;;5.03;;
30681;SDS011;17439;48.092;11.842;2023-10-19T05:44:12;9.15;;;5.72;;
30681;SDS011;17439;48.092;11.842;2023-10-19T05:46:39;10.20;;;6.38;;
30681;SDS011;17439;48.092;11.842;2023-10-19T05:49:06;9.70;;;5.45;;
30681;SDS011;17439;48.092;11.842;2023-10-19T05:51:32;7.57;;;4.75;;
30681;SDS011;17439;48.092;11.842;2023-10-19T05:53:59;8.45;;;5.07;;
30681;SDS011;17439;48.092;11.842;2023-10-19T05:56:26;7.72;;;4.85;;
30681;SDS011;17439;48.092;11.842;2023-10-19T05:58:52;7.90;;;5.22;;
30681;SDS011;17439;48.092;11.842;2023-10-19T06:01:19;11.00;;;5.65;;
30681;SDS011;17439;48.092;11.842;2023-10-19T06:03:46;8.45;;;5.00;;
30681;SDS011;17439;48.092;11.842;2023-10-19T06:06:13;9.60;;;5.30;;
30681;SDS011;17439;48.092;11.842;2023-10-19T06:08:40;8.68;;;5.25;;
30681;SDS011;17439;48.092;11.842;2023-10-19T06:11:07;6.45;;;4.60;;
30681;SDS011;17439;48.092;11.842;2023-10-19T06:13:34;10.13;;;5.38;;
30681;SDS011;17439;48.092;11.842;2023-10-19T06:16:00;11.45;;;5.30;;
30681;SDS011;17439;48.092;11.842;2023-10-19T06:18:27;9.93;;;5.50;;
30681;SDS011;17439;48.092;11.842;2023-10-19T06:20:54;8.50;;;5.30;;
30681;SDS011;17439;48.092;11.842;2023-10-19T06:23:21;9.43;;;5.75;;
30681;SDS011;17439;48.092;11.842;2023-10-19T06:25:48;10.52;;;6.80;;
30681;SDS011;17439;48.092;11.842;2023-10-19T06:28:15;10.77;;;5.95;;
30681;SDS011;17439;48.092;11.842;2023-10-19T06:30:42;13.32;;;5.45;;
30681;SDS011;17439;48.092;11.842;2023-10-19T06:33:09;10.68;;;5.55;;
30681;SDS011;17439;48.092;11.842;2023-10-19T06:35:36;15.43;;;6.53;;
30681;SDS011;17439;48.092;11.842;2023-10-19T06:38:02;11.32;;;5.90;;
30681;SDS011;17439;48.092;11.842;2023-10-19T06:40:30;8.15;;;5.75;;
30681;SDS011;17439;48.092;11.842;2023-10-19T06:42:57;10.15;;;5.70;;
30681;SDS011;17439;48.092;11.842;2023-10-19T06:45:25;13.75;;;5.75;;
30681;SDS011;17439;48.092;11.842;2023-10-19T06:47:52;9.10;;;6.00;;
30681;SDS011;17439;48.092;11.842;2023-10-19T06:50:19;8.40;;;5.10;;
30681;SDS011;17439;48.092;11.842;2023-10-19T06:52:47;9.30;;;5.35;;
30681;SDS011;17439;48.092;11.842;2023-10-19T06:55:15;8.60;;;5.70;;
30681;SDS011;17439;48.092;11.842;2023-10-19T06:57:43;8.55;;;5.50;;
30681;SDS011;17439;48.092;11.842;2023-10-19T07:00:11;8.40;;;5.67;;
30681;SDS011;17439;48.092;11.842;2023-10-19T07:02:38;8.73;;;5.38;;
30681;SDS011;17439;48.092;11.842;2023-10-19T07:05:05;10.02;;;4.72;;
30681;SDS011;17439;48.092;11.842;2023-10-19T07:07:32;9.07;;;5.23;;
30681;SDS011;17439;48.092;11.842;2023-10-19T07:09:59;9.95;;;5.47;;
30681;SDS011;17439;48.092;11.842;2023-10-19T07:12:26;7.13;;;4.38;;
30681;SDS011;17439;48.092;11.842;2023-10-19T07:14:52;8.85;;;4.90;;
30681;SDS011;17439;48.092;11.842;2023-10-19T07:17:19;7.53;;;4.72;;
30681;SDS011;17439;48.092;11.842;2023-10-19T07:19:46;7.88;;;4.85;;
30681;SDS011;17439;48.092;11.842;2023-10-19T07:22:12;7.85;;;5.40;;
30681;SDS011;17439;48.092;11.842;2023-10-19T07:24:39;13.35;;;4.85;;
30681;SDS011;17439;48.092;11.842;2023-10-19T07:27:06;17.15;;;5.13;;
30681;SDS011;17439;48.092;11.842;2023-10-19T07:29:34;7.03;;;4.00;;
30681;SDS011;17439;48.092;11.842;2023-10-19T07:32:00;7.28;;;4.25;;
30681;SDS011;17439;48.092;11.842;2023-10-19T07:34:31;7.07;;;4.15;;
30681;SDS011;17439;48.092;11.842;2023-10-19T07:36:58;5.47;;;3.72;;
30681;SDS011;17439;48.092;11.842;2023-10-19T07:39:26;6.55;;;4.40;;
30681;SDS011;17439;48.092;11.842;2023-10-19T07:41:53;6.65;;;4.25;;
30681;SDS011;17439;48.092;11.842;2023-10-19T07:44:20;6.82;;;3.83;;
30681;SDS011;17439;48.092;11.842;2023-10-19T07:46:46;7.72;;;3.83;;
30681;SDS011;17439;48.092;11.842;2023-10-19T07:49:13;6.72;;;4.32;;
30681;SDS011;17439;48.092;11.842;2023-10-19T07:51:44;6.72;;;3.72;;
30681;SDS011;17439;48.092;11.842;2023-10-19T07:54:11;7.20;;;4.38;;
30681;SDS011;17439;48.092;11.842;2023-10-19T07:56:38;9.80;;;4.20;;
30681;SDS011;17439;48.092;11.842;2023-10-19T07:59:05;5.53;;;3.63;;
30681;SDS011;17439;48.092;11.842;2023-10-19T08:01:32;6.13;;;4.18;;
30681;SDS011;17439;48.092;11.842;2023-10-19T08:03:59;7.60;;;3.95;;
30681;SDS011;17439;48.092;11.842;2023-10-19T08:06:25;8.23;;;4.60;;
30681;SDS011;17439;48.092;11.842;2023-10-19T08:08:52;7.32;;;4.05;;
30681;SDS011;17439;48.092;11.842;2023-10-19T08:11:19;6.53;;;4.20;;
30681;SDS011;17439;48.092;11.842;2023-10-19T08:13:46;6.13;;;4.35;;
30681;SDS011;17439;48.092;11.842;2023-10-19T08:16:12;6.60;;;3.95;;
30681;SDS011;17439;48.092;11.842;2023-10-19T08:18:39;6.68;;;4.03;;
30681;SDS011;17439;48.092;11.842;2023-10-19T08:21:06;4.60;;;3.05;;
30681;SDS011;17439;48.092;11.842;2023-10-19T08:23:32;6.20;;;3.63;;
30681;SDS011;17439;48.092;11.842;2023-10-19T08:25:59;4.45;;;2.97;;
30681;SDS011;17439;48.092;11.842;2023-10-19T08:28:26;6.03;;;2.88;;
30681;SDS011;17439;48.092;11.842;2023-10-19T08:30:53;4.78;;;3.05;;
30681;SDS011;17439;48.092;11.842;2023-10-19T08:33:20;5.40;;;3.00;;
30681;SDS011;17439;48.092;11.842;2023-10-19T08:35:46;5.50;;;3.40;;
30681;SDS011;17439;48.092;11.842;2023-10-19T08:38:13;4.07;;;2.83;;
30681;SDS011;17439;48.092;11.842;2023-10-19T08:40:40;4.20;;;3.15;;
30681;SDS011;17439;48.092;11.842;2023-10-19T08:43:06;4.10;;;2.55;;
30681;SDS011;17439;48.092;11.842;2023-10-19T08:45:34;3.60;;;2.37;;
30681;SDS011;17439;48.092;11.842;2023-10-19T08:48:01;7.22;;;2.55;;
30681;SDS011;17439;48.092;11.842;2023-10-19T08:50:28;5.32;;;3.25;;
30681;SDS011;17439;48.092;11.842;2023-10-19T08:53:02;5.78;;;3.78;;
30681;SDS011;17439;48.092;11.842;2023-10-19T08:55:30;5.63;;;3.67;;
30681;SDS011;17439;48.092;11.842;2023-10-19T08:58:15;5.35;;;3.10;;
30681;SDS011;17439;48.092;11.842;2023-10-19T09:00:43;10.48;;;3.10;;
30681;SDS011;17439;48.092;11.842;2023-10-19T09:03:14;5.15;;;2.20;;
30681;SDS011;17439;48.092;11.842;2023-10-19T09:05:41;8.10;;;4.00;;
30681;SDS011;17439;48.092;11.842;2023-10-19T09:08:08;8.95;;;4.53;;
30681;SDS011;17439;48.092;11.842;2023-10-19T09:10:34;11.25;;;5.95;;
30681;SDS011;17439;48.092;11.842;2023-10-19T09:13:02;10.98;;;5.07;;
30681;SDS011;17439;48.092;11.842;2023-10-19T09:15:30;6.63;;;3.60;;
30681;SDS011;17439;48.092;11.842;2023-10-19T09:17:57;9.07;;;3.42;;
30681;SDS011;17439;48.092;11.842;2023-10-19T09:20:25;7.07;;;3.47;;
30681;SDS011;17439;48.092;11.842;2023-10-19T09:22:52;3.58;;;2.35;;
30681;SDS011;17439;48.092;11.842;2023-10-19T09:25:19;3.28;;;2.35;;
30681;SDS011;17439;48.092;11.842;2023-10-19T09:27:46;4.18;;;2.75;;
30681;SDS011;17439;48.092;11.842;2023-10-19T09:30:13;4.32;;;3.20;;
30681;SDS011;17439;48.092;11.842;2023-10-19T09:32:41;3.95;;;2.92;;
30681;SDS011;17439;48.092;11.842;2023-10-19T09:35:09;5.03;;;2.85;;
30681;SDS011;17439;48.092;11.842;2023-10-19T09:37:37;8.07;;;2.67;;
30681;SDS011;17439;48.092;11.842;2023-10-19T09:40:04;4.03;;;2.70;;
30681;SDS011;17439;48.092;11.842;2023-10-19T09:42:32;4.38;;;2.92;;
30681;SDS011;17439;48.092;11.842;2023-10-19T09:44:59;6.00;;;3.63;;
30681;SDS011;17439;48.092;11.842;2023-10-19T09:47:30;4.05;;;3.25;;
30681;SDS011;17439;48.092;11.842;2023-10-19T09:50:02;4.28;;;3.45;;
30681;SDS011;17439;48.092;11.842;2023-10-19T09:52:29;6.60;;;3.47;;
30681;SDS011;17439;48.092;11.842;2023-10-19T09:55:00;6.85;;;4.13;;
30681;SDS011;17439;48.092;11.842;2023-10-19T10:00:21;7.07;;;4.20;;
30681;SDS011;17439;48.092;11.842;2023-10-19T10:02:48;6.22;;;3.58;;
30681;SDS011;17439;48.092;11.842;2023-10-19T10:15:55;6.38;;;3.67;;
30681;SDS011;17439;48.092;11.842;2023-10-19T10:18:24;6.97;;;3.00;;
30681;SDS011;17439;48.092;11.842;2023-10-19T10:21:25;10.13;;;3.50;;
30681;SDS011;17439;48.092;11.842;2023-10-19T10:23:49;5.80;;;3.00;;
30681;SDS011;17439;48.092;11.842;2023-10-19T10:26:21;4.97;;;2.55;;
30681;SDS011;17439;48.092;11.842;2023-10-19T10:29:07;3.55;;;2.47;;
30681;SDS011;17439;48.092;11.842;2023-10-19T10:31:40;3.67;;;2.70;;
30681;SDS011;17439;48.092;11.842;2023-10-19T10:34:08;5.18;;;2.55;;
30681;SDS011;17439;48.092;11.842;2023-10-19T10:39:29;6.57;;;4.07;;
30681;SDS011;17439;48.092;11.842;2023-10-19T10:41:59;7.90;;;3.97;;
30681;SDS011;17439;48.092;11.842;2023-10-19T10:44:43;5.10;;;3.30;;
30681;SDS011;17439;48.092;11.842;2023-10-19T10:47:15;6.65;;;2.92;;
30681;SDS011;17439;48.092;11.842;2023-10-19T10:49:56;5.05;;;2.90;;
30681;SDS011;17439;48.092;11.842;2023-10-19T10:52:34;5.97;;;3.00;;
30681;SDS011;17439;48.092;11.842;2023-10-19T10:55:06;4.88;;;2.25;;
30681;SDS011;17439;48.092;11.842;2023-10-19T10:57:34;2.90;;;2.00;;
30681;SDS011;17439;48.092;11.842;2023-10-19T11:00:04;3.47;;;2.05;;
30681;SDS011;17439;48.092;11.842;2023-10-19T11:02:35;6.05;;;2.30;;
30681;SDS011;17439;48.092;11.842;2023-10-19T11:05:03;5.43;;;2.20;;
30681;SDS011;17439;48.092;11.842;2023-10-19T11:07:30;3.83;;;1.98;;
30681;SDS011;17439;48.092;11.842;2023-10-19T11:09:57;2.47;;;1.83;;
30681;SDS011;17439;48.092;11.842;2023-10-19T11:12:23;4.65;;;2.80;;
30681;SDS011;17439;48.092;11.842;2023-10-19T11:14:57;7.32;;;2.47;;
30681;SDS011;17439;48.092;11.842;2023-10-19T11:17:25;5.20;;;2.60;;
30681;SDS011;17439;48.092;11.842;2023-10-19T11:19:52;9.25;;;5.20;;
30681;SDS011;17439;48.092;11.842;2023-10-19T11:22:19;6.95;;;4.15;;
30681;SDS011;17439;48.092;11.842;2023-10-19T11:24:46;4.88;;;3.10;;
30681;SDS011;17439;48.092;11.842;2023-10-19T11:27:12;5.10;;;2.78;;
30681;SDS011;17439;48.092;11.842;2023-10-19T11:29:39;4.00;;;2.85;;
30681;SDS011;17439;48.092;11.842;2023-10-19T11:32:20;3.30;;;2.20;;
30681;SDS011;17439;48.092;11.842;2023-10-19T11:34:46;5.32;;;2.17;;
30681;SDS011;17439;48.092;11.842;2023-10-19T11:37:13;5.57;;;2.50;;
30681;SDS011;17439;48.092;11.842;2023-10-19T11:39:40;9.02;;;3.22;;
30681;SDS011;17439;48.092;11.842;2023-10-19T11:42:06;4.72;;;2.50;;
30681;SDS011;17439;48.092;11.842;2023-10-19T11:44:33;4.32;;;2.17;;
30681;SDS011;17439;48.092;11.842;2023-10-19T11:47:00;6.85;;;2.25;;
30681;SDS011;17439;48.092;11.842;2023-10-19T11:49:27;4.95;;;2.83;;
30681;SDS011;17439;48.092;11.842;2023-10-19T11:51:54;6.90;;;3.03;;
30681;SDS011;17439;48.092;11.842;2023-10-19T11:54:21;7.70;;;2.67;;
30681;SDS011;17439;48.092;11.842;2023-10-19T11:56:47;6.35;;;3.03;;
30681;SDS011;17439;48.092;11.842;2023-10-19T11:59:14;5.65;;;2.30;;
30681;SDS011;17439;48.092;11.842;2023-10-19T12:01:41;3.00;;;2.00;;
30681;SDS011;17439;48.092;11.842;2023-10-19T12:04:08;11.20;;;5.25;;
30681;SDS011;17439;48.092;11.842;2023-10-19T12:06:35;6.32;;;2.25;;
30681;SDS011;17439;48.092;11.842;2023-10-19T12:09:01;3.67;;;1.75;;
30681;SDS011;17439;48.092;11.842;2023-10-19T12:11:28;4.20;;;1.63;;
30681;SDS011;17439;48.092;11.842;2023-10-19T12:13:55;2.15;;;1.30;;
30681;SDS011;17439;48.092;11.842;2023-10-19T12:16:21;3.63;;;1.73;;
30681;SDS011;17439;48.092;11.842;2023-10-19T12:18:48;5.22;;;1.90;;
30681;SDS011;17439;48.092;11.842;2023-10-19T12:21:15;2.20;;;1.38;;
30681;SDS011;17439;48.092;11.842;2023-10-19T12:23:42;4.70;;;1.65;;
30681;SDS011;17439;48.092;11.842;2023-10-19T12:26:10;5.88;;;2.05;;
30681;SDS011;17439;48.092;11.842;2023-10-19T12:28:37;3.70;;;1.30;;
30681;SDS011;17439;48.092;11.842;2023-10-19T12:31:04;3.25;;;1.50;;
30681;SDS011;17439;48.092;11.842;2023-10-19T12:33:31;5.90;;;2.50;;
30681;SDS011;17439;48.092;11.842;2023-10-19T12:35:58;4.55;;;2.10;;
30681;SDS011;17439;48.092;11.842;2023-10-19T12:38:25;4.70;;;1.90;;
30681;SDS011;17439;48.092;11.842;2023-10-19T12:40:51;5.00;;;1.50;;
30681;SDS011;17439;48.092;11.842;2023-10-19T12:43:18;2.97;;;1.67;;
30681;SDS011;17439;48.092;11.842;2023-10-19T12:45:45;5.20;;;1.67;;
30681;SDS011;17439;48.092;11.842;2023-10-19T12:48:12;8.10;;;1.88;;
30681;SDS011;17439;48.092;11.842;2023-10-19T12:50:39;3.15;;;1.65;;
30681;SDS011;17439;48.092;11.842;2023-10-19T12:53:05;3.45;;;1.88;;
30681;SDS011;17439;48.092;11.842;2023-10-19T12:55:33;3.27;;;1.47;;
30681;SDS011;17439;48.092;11.842;2023-10-19T12:58:00;2.63;;;1.40;;
30681;SDS011;17439;48.092;11.842;2023-10-19T13:00:26;2.05;;;1.40;;
30681;SDS011;17439;48.092;11.842;2023-10-19T13:02:54;3.33;;;1.77;;
30681;SDS011;17439;48.092;11.842;2023-10-19T13:05:22;4.68;;;1.70;;
30681;SDS011;17439;48.092;11.842;2023-10-19T13:07:49;4.93;;;1.98;;
30681;SDS011;17439;48.092;11.842;2023-10-19T13:10:15;5.68;;;1.92;;
30681;SDS011;17439;48.092;11.842;2023-10-19T13:12:42;3.58;;;2.40;;
30681;SDS011;17439;48.092;11.842;2023-10-19T13:15:09;5.07;;;2.33;;
30681;SDS011;17439;48.092;11.842;2023-10-19T13:17:35;11.43;;;2.83;;
30681;SDS011;17439;48.092;11.842;2023-10-19T13:20:02;6.03;;;2.70;;
30681;SDS011;17439;48.092;11.842;2023-10-19T13:22:29;3.85;;;2.40;;
30681;SDS011;17439;48.092;11.842;2023-10-19T13:24:56;3.40;;;2.22;;
30681;SDS011;17439;48.092;11.842;2023-10-19T13:27:23;3.90;;;2.65;;
30681;SDS011;17439;48.092;11.842;2023-10-19T13:29:49;5.05;;;2.60;;
30681;SDS011;17439;48.092;11.842;2023-10-19T13:32:16;6.03;;;2.28;;
30681;SDS011;17439;48.092;11.842;2023-10-19T13:34:43;4.82;;;2.25;;
30681;SDS011;17439;48.092;11.842;2023-10-19T13:37:10;4.32;;;2.13;;
30681;SDS011;17439;48.092;11.842;2023-10-19T13:39:37;2.88;;;1.70;;
30681;SDS011;17439;48.092;11.842;2023-10-19T13:42:03;3.20;;;1.98;;
30681;SDS011;17439;48.092;11.842;2023-10-19T13:44:30;4.10;;;1.65;;
30681;SDS011;17439;48.092;11.842;2023-10-19T13:46:57;3.80;;;1.87;;
30681;SDS011;17439;48.092;11.842;2023-10-19T13:49:24;1.95;;;1.52;;
30681;SDS011;17439;48.092;11.842;2023-10-19T13:51:51;2.28;;;1.88;;
30681;SDS011;17439;48.092;11.842;2023-10-19T13:54:17;5.40;;;1.98;;
30681;SDS011;17439;48.092;11.842;2023-10-19T13:56:44;4.22;;;1.90;;
30681;SDS011;17439;48.092;11.842;2023-10-19T13:59:11;5.55;;;3.05;;
30681;SDS011;17439;48.092;11.842;2023-10-19T14:01:37;3.90;;;2.08;;
30681;SDS011;17439;48.092;11.842;2023-10-19T14:04:04;11.88;;;2.22;;
30681;SDS011;17439;48.092;11.842;2023-10-19T14:06:31;4.80;;;2.15;;
30681;SDS011;17439;48.092;11.842;2023-10-19T14:08:58;3.45;;;2.00;;
30681;SDS011;17439;48.092;11.842;2023-10-19T14:11:24;3.90;;;2.05;;
30681;SDS011;17439;48.092;11.842;2023-10-19T14:13:51;5.10;;;2.25;;
30681;SDS011;17439;48.092;11.842;2023-10-19T14:16:18;5.05;;;2.38;;
30681;SDS011;17439;48.092;11.842;2023-10-19T14:18:44;3.20;;;2.50;;
30681;SDS011;17439;48.092;11.842;2023-10-19T14:21:12;2.50;;;1.92;;
30681;SDS011;17439;48.092;11.842;2023-10-19T14:23:40;7.78;;;2.50;;
30681;SDS011;17439;48.092;11.842;2023-10-19T14:26:10;6.88;;;3.08;;
30681;SDS011;17439;48.092;11.842;2023-10-19T14:28:37;3.70;;;2.40;;
30681;SDS011;17439;48.092;11.842;2023-10-19T14:31:04;7.45;;;3.15;;
30681;SDS011;17439;48.092;11.842;2023-10-19T14:33:31;4.85;;;2.35;;
30681;SDS011;17439;48.092;11.842;2023-10-19T14:35:58;3.70;;;2.58;;
30681;SDS011;17439;48.092;11.842;2023-10-19T14:38:24;3.45;;;2.33;;
30681;SDS011;17439;48.092;11.842;2023-10-19T14:40:51;5.57;;;3.20;;
30681;SDS011;17439;48.092;11.842;2023-10-19T14:43:18;3.20;;;2.33;;
30681;SDS011;17439;48.092;11.842;2023-10-19T14:45:44;4.75;;;3.15;;
30681;SDS011;17439;48.092;11.842;2023-10-19T14:48:11;7.82;;;3.25;;
30681;SDS011;17439;48.092;11.842;2023-10-19T14:50:38;4.57;;;2.97;;
30681;SDS011;17439;48.092;11.842;2023-10-19T14:53:05;4.65;;;3.25;;
30681;SDS011;17439;48.092;11.842;2023-10-19T14:55:31;6.15;;;3.55;;